Beauregard Regional Airport
KDRI : now visible

Airfield :











YOU CAN JOIN US ON...

 
LOGIN :

Register | Disclaimer

   EN    FR    IT 

 









Legend :    VFR   Marginal VFR   IFR   Intensive IFR   Very Intensive IFR
Visi :
Ceiling :
>= 8 km
>= 3000ft
5 to 8 km
1000 to 3000 ft
1500m to 5 km
500 to 1000 ft
800 to 1500m
200 to 500 ft
< 800m
< 200 ft
Symbols :   Thunderstorms  Fog  Heavy snow  Heavy precipitations  Wind > 20 kt






- Airport Elevation : 202 ft


KDRI - Beauregard Regional

CURRENT METAR :
  • 021715Z AUTO 20008KT 170V240 10SM BKN027 BKN034 31/24 A3002 RMK AO2 LTG DSNT S AND SW T03120236

EXPIRED METARs :
  • 021655Z AUTO 19011KT 10SM BKN028 BKN034 31/24 A3002 RMK AO2 LTG DSNT SW T03120238
  • 021635Z AUTO 20008G15KT 170V230 10SM SCT025 SCT032 31/24 A3003 RMK AO2 LTG DSNT N T03080240
  • 021615Z AUTO 22005KT 10SM CLR 30/24 A3003 RMK AO2 T03000239
  • 021555Z AUTO 18006G14KT 10SM SCT085 29/23 A3003 RMK AO2 LTG DSNT NW T02860232
  • 021535Z AUTO 15007KT 10SM SCT015 SCT021 BKN085 27/23 A3004 RMK AO2 LTG DSNT NW T02720234
  • 021515Z AUTO 18010G14KT 10SM BKN017 BKN023 BKN031 28/23 A3004 RMK AO2 LTG DSNT NW T02760233
  • 021455Z AUTO 17009KT 10SM SCT080 27/23 A3004 RMK AO2 60001 T02740233
  • 021435Z AUTO 17008KT 10SM SCT028 BKN080 BKN100 27/23 A3003 RMK AO2 LTG DSNT NW T02700230
  • 020255Z AUTO 12004KT 10SM BKN008 OVC021 24/24 A2999 RMK AO2 P0001 60004 T02410235

TAF N/A
KZHU FIR / North America



MET'MAP, your aeronautical weather chart ! - Copyright ORBIFLY December 2007 - Disclaimer

ORBIFLY MET'MAP TEAM :

Programming & Development : Alexandra Zaïnal
Original concept : Baudouin d'Aumeries
Technical & hardware support : Manuel Goepfert
Assistance : Marc-Olivier Méhu




SOURCES & CREDITS :

   NOAA       Earth
Advisory